createdAt,value
2022-10-11T00:02:15.670Z,38.45
2022-10-11T00:05:01.268Z,38.05
2022-10-11T00:07:46.759Z,36.13
2022-10-11T00:10:33.398Z,39.22
2022-10-11T00:13:18.738Z,36.63
2022-10-11T00:16:10.093Z,37.83
2022-10-11T00:18:55.843Z,38.10
2022-10-11T00:21:41.827Z,40.28
2022-10-11T00:24:27.120Z,39.33
2022-10-11T00:27:12.840Z,34.20
2022-10-11T00:29:58.851Z,37.90
2022-10-11T00:32:44.270Z,36.72
2022-10-11T00:35:30.026Z,42.05
2022-10-11T00:38:17.875Z,48.13
2022-10-11T00:41:03.407Z,41.58
2022-10-11T00:44:07.844Z,37.53
2022-10-11T00:47:03.202Z,40.90
2022-10-11T00:49:56.724Z,39.03
2022-10-11T00:52:45.631Z,51.78
2022-10-11T00:55:35.590Z,43.55
2022-10-11T00:58:22.992Z,43.17
2022-10-11T01:01:08.753Z,46.33
2022-10-11T01:03:55.260Z,40.00
2022-10-11T01:06:41.999Z,42.58
2022-10-11T01:09:28.440Z,40.88
2022-10-11T01:12:23.408Z,41.75
2022-10-11T01:15:22.888Z,38.05
2022-10-11T01:18:17.767Z,46.85
2022-10-11T01:21:38.707Z,49.00
2022-10-11T01:25:12.083Z,39.97
2022-10-11T01:28:28.114Z,44.08
2022-10-11T01:31:31.769Z,45.47
2022-10-11T01:34:41.575Z,41.13
2022-10-11T01:37:53.278Z,48.78
2022-10-11T01:41:06.627Z,51.47
2022-10-11T01:43:55.968Z,46.17
2022-10-11T01:46:41.758Z,43.85
2022-10-11T01:49:27.595Z,43.25
2022-10-11T01:52:13.526Z,44.47
2022-10-11T01:55:10.393Z,46.58
2022-10-11T01:58:22.607Z,44.80
2022-10-11T02:01:11.223Z,44.08
2022-10-11T02:04:16.437Z,49.80
2022-10-11T02:07:22.106Z,42.30
2022-10-11T02:10:30.769Z,40.25
2022-10-11T02:13:23.028Z,44.67
2022-10-11T02:16:13.170Z,49.50
2022-10-11T02:19:01.503Z,52.63
2022-10-11T02:21:53.551Z,44.20
2022-10-11T02:24:42.935Z,44.83
2022-10-11T02:27:33.899Z,49.15
2022-10-11T02:30:19.508Z,39.33
2022-10-11T02:33:08.665Z,53.00
2022-10-11T02:36:03.978Z,41.47
2022-10-11T02:38:54.543Z,40.35
2022-10-11T02:41:42.997Z,50.17
2022-10-11T02:44:46.622Z,37.90
2022-10-11T02:47:33.071Z,39.25
2022-10-11T02:50:18.882Z,39.50
2022-10-11T02:53:04.824Z,47.25
2022-10-11T02:55:52.963Z,52.97
2022-10-11T02:58:38.448Z,36.28
2022-10-11T03:01:24.469Z,42.03
2022-10-11T03:04:10.474Z,40.95
2022-10-11T03:06:56.049Z,33.58
2022-10-11T03:09:42.018Z,38.15
2022-10-11T03:12:27.560Z,39.63
2022-10-11T03:15:13.276Z,36.13
2022-10-11T03:17:58.913Z,43.03
2022-10-11T03:20:44.798Z,42.03
2022-10-11T03:23:30.575Z,41.35
2022-10-11T03:26:16.333Z,40.15
2022-10-11T03:29:02.243Z,37.15
2022-10-11T03:31:48.364Z,45.58
2022-10-11T03:34:33.694Z,43.17
2022-10-11T03:37:19.533Z,46.47
2022-10-11T03:40:06.568Z,45.00
2022-10-11T03:42:52.294Z,45.75
2022-10-11T03:45:38.110Z,44.88
2022-10-11T03:48:23.726Z,51.65
2022-10-11T03:51:09.142Z,39.30
2022-10-11T03:53:54.998Z,48.70
2022-10-11T03:56:40.839Z,43.97
2022-10-11T03:59:26.355Z,41.55
2022-10-11T04:02:12.219Z,36.53
2022-10-11T04:04:57.675Z,45.92
2022-10-11T04:07:43.522Z,40.08
2022-10-11T04:10:31.087Z,38.28
2022-10-11T04:13:16.986Z,46.00
2022-10-11T04:16:02.918Z,37.30
2022-10-11T04:18:48.496Z,41.03
2022-10-11T04:21:34.318Z,43.58
2022-10-11T04:24:20.003Z,37.65
2022-10-11T04:27:06.235Z,52.70
2022-10-11T04:29:51.965Z,39.67
2022-10-11T04:32:37.569Z,47.55
2022-10-11T04:35:23.297Z,47.33
2022-10-11T04:38:09.999Z,42.70
2022-10-11T04:40:56.007Z,44.72
2022-10-11T04:43:42.691Z,40.53
2022-10-11T04:46:29.260Z,47.00
2022-10-11T04:49:14.992Z,40.95
2022-10-11T04:52:00.767Z,53.70
2022-10-11T04:54:47.735Z,44.08
2022-10-11T04:57:33.399Z,44.88
2022-10-11T05:00:19.247Z,42.22
2022-10-11T05:03:05.178Z,44.05
2022-10-11T05:05:50.916Z,40.65
2022-10-11T05:08:36.559Z,49.70
2022-10-11T05:11:24.171Z,52.28
2022-10-11T05:14:10.052Z,42.28
2022-10-11T05:16:55.842Z,47.50
2022-10-11T05:19:41.485Z,43.25
2022-10-11T05:22:27.154Z,41.72
2022-10-11T05:25:12.965Z,50.88
2022-10-11T05:27:58.610Z,43.88
2022-10-11T05:30:44.267Z,47.17
2022-10-11T05:33:31.014Z,49.50
2022-10-11T05:36:16.875Z,44.13
2022-10-11T05:39:02.677Z,50.95
2022-10-11T05:41:48.228Z,46.63
2022-10-11T05:44:34.183Z,46.40
2022-10-11T05:47:19.594Z,43.13
2022-10-11T05:50:05.781Z,53.85
2022-10-11T05:52:51.506Z,44.63
2022-10-11T05:55:40.279Z,44.85
2022-10-11T05:58:26.307Z,47.50
2022-10-11T06:01:26.081Z,43.63
2022-10-11T06:04:11.857Z,53.53
2022-10-11T06:06:57.603Z,48.28
2022-10-11T06:09:43.060Z,38.38
2022-10-11T06:12:32.045Z,40.10
2022-10-11T06:15:18.148Z,41.28
2022-10-11T06:18:03.684Z,37.03
2022-10-11T06:20:49.245Z,39.83
2022-10-11T06:23:34.954Z,36.80
2022-10-11T06:26:21.029Z,39.70
2022-10-11T06:29:07.105Z,37.60
2022-10-11T06:31:52.856Z,32.63
2022-10-11T06:34:38.280Z,44.25
2022-10-11T06:37:24.114Z,38.55
2022-10-11T06:40:09.839Z,41.90
2022-10-11T06:42:55.639Z,45.65
2022-10-11T06:45:41.662Z,53.53
2022-10-11T06:48:27.718Z,41.58
2022-10-11T06:51:16.147Z,51.83
2022-10-11T06:54:02.470Z,42.95
2022-10-11T06:56:48.064Z,47.72
2022-10-11T06:59:33.949Z,34.00
2022-10-11T07:02:19.709Z,45.85
2022-10-11T07:05:05.977Z,38.47
2022-10-11T07:07:51.473Z,46.72
2022-10-11T07:10:37.272Z,39.47
2022-10-11T07:13:24.442Z,44.88
2022-10-11T07:16:12.533Z,47.17
2022-10-11T07:19:01.296Z,33.97
2022-10-11T07:21:47.176Z,36.08
2022-10-11T07:24:33.153Z,38.97
2022-10-11T07:27:22.108Z,36.10
2022-10-11T07:30:08.107Z,36.55
2022-10-11T07:32:53.846Z,39.20
2022-10-11T07:35:39.729Z,34.75
2022-10-11T07:38:25.454Z,38.15
2022-10-11T07:41:11.805Z,39.08
2022-10-11T07:43:57.722Z,38.22
2022-10-11T07:46:43.222Z,38.03
2022-10-11T07:49:28.860Z,42.15
2022-10-11T07:52:14.590Z,37.80
2022-10-11T07:55:00.233Z,33.50
2022-10-11T07:57:46.036Z,38.38
2022-10-11T08:00:32.079Z,45.33
2022-10-11T08:03:17.867Z,42.83
2022-10-11T08:06:06.993Z,47.45
2022-10-11T08:08:53.169Z,38.20
2022-10-11T08:11:39.295Z,35.72
2022-10-11T08:14:24.829Z,46.17
2022-10-11T08:17:10.501Z,37.00
2022-10-11T08:19:58.019Z,40.05
2022-10-11T08:22:43.715Z,38.67
2022-10-11T08:25:29.212Z,53.22
2022-10-11T08:28:17.656Z,44.80
2022-10-11T08:31:04.415Z,53.03
2022-10-11T08:33:50.769Z,33.80
2022-10-11T08:36:37.736Z,42.35
2022-10-11T08:39:23.789Z,38.78
2022-10-11T08:42:43.085Z,34.08
2022-10-11T08:45:50.478Z,37.15
2022-10-11T08:48:45.781Z,36.67
2022-10-11T08:51:43.330Z,38.85
2022-10-11T08:54:38.561Z,36.35
2022-10-11T08:57:27.361Z,36.65
2022-10-11T09:00:17.065Z,33.88
2022-10-11T09:03:14.945Z,34.72
2022-10-11T09:06:17.735Z,36.33
2022-10-11T09:09:25.302Z,35.22
2022-10-11T09:12:13.867Z,36.13
2022-10-11T09:15:10.093Z,41.65
2022-10-11T09:18:22.084Z,41.88
2022-10-11T09:21:19.931Z,40.33
2022-10-11T09:24:20.898Z,35.40
2022-10-11T09:27:57.316Z,30.50
2022-10-11T09:30:36.004Z,37.08
2022-10-11T09:33:28.978Z,35.67
2022-10-11T09:36:20.363Z,44.58
2022-10-11T09:39:27.279Z,39.45
2022-10-11T09:42:13.139Z,33.35
2022-10-11T09:45:00.950Z,41.33
2022-10-11T09:47:49.656Z,38.38
2022-10-11T09:50:35.479Z,34.42
2022-10-11T09:53:40.870Z,32.17
2022-10-11T09:56:29.637Z,33.67
2022-10-11T09:59:32.315Z,32.03
2022-10-11T10:02:21.515Z,32.80
2022-10-11T10:05:07.106Z,41.95
2022-10-11T10:08:11.243Z,29.20
2022-10-11T10:10:59.584Z,32.60
2022-10-11T10:13:55.991Z,24.60
2022-10-11T10:16:41.623Z,35.45
2022-10-11T10:19:27.498Z,31.48
2022-10-11T10:22:27.377Z,32.63
2022-10-11T10:25:37.493Z,32.85
2022-10-11T10:28:27.583Z,30.45
2022-10-11T10:31:23.174Z,32.10
2022-10-11T10:34:16.475Z,22.85
2022-10-11T10:37:21.076Z,39.10
2022-10-11T10:40:31.171Z,26.48
2022-10-11T10:43:20.211Z,23.75
2022-10-11T10:46:24.028Z,27.58
2022-10-11T10:52:47.857Z,34.67
2022-10-11T10:55:45.974Z,28.88
2022-10-11T10:58:57.383Z,27.90
2022-10-11T11:02:06.774Z,26.65
2022-10-11T11:05:34.413Z,37.42
2022-10-11T11:08:52.535Z,26.58
2022-10-11T11:11:59.224Z,27.38
2022-10-11T11:15:00.051Z,36.78
2022-10-11T11:17:58.487Z,32.92
2022-10-11T11:20:47.103Z,30.88
2022-10-11T11:24:04.663Z,31.88
2022-10-11T11:27:01.726Z,30.38
2022-10-11T11:30:13.851Z,32.80
2022-10-11T11:33:02.708Z,27.92
2022-10-11T11:35:52.925Z,24.17
2022-10-11T11:38:42.195Z,25.58
2022-10-11T11:41:39.686Z,22.17
2022-10-11T11:44:34.659Z,38.08
2022-10-11T11:47:31.337Z,36.33
2022-10-11T11:50:23.215Z,29.70
2022-10-11T11:53:24.778Z,23.90
2022-10-11T11:56:38.397Z,29.55
2022-10-11T11:59:46.819Z,30.75
2022-10-11T12:02:50.360Z,26.30
2022-10-11T12:09:17.519Z,28.00
2022-10-11T12:12:08.623Z,25.70
2022-10-11T12:15:03.407Z,30.30
2022-10-11T12:17:55.898Z,34.53
2022-10-11T12:20:43.127Z,28.10
2022-10-11T12:23:28.928Z,23.02
2022-10-11T12:26:29.822Z,29.38
2022-10-11T12:29:18.629Z,16.73
2022-10-11T12:32:04.213Z,23.80
2022-10-11T12:34:49.812Z,22.00
2022-10-11T12:37:35.519Z,18.90
2022-10-11T12:40:42.993Z,30.27
2022-10-11T12:44:18.387Z,14.02
2022-10-11T12:47:23.385Z,15.07
2022-10-11T12:50:35.176Z,15.85
2022-10-11T12:53:27.391Z,16.83
2022-10-11T12:56:25.884Z,28.67
2022-10-11T12:59:19.438Z,27.77
2022-10-11T13:05:24.233Z,31.58
2022-10-11T13:11:04.415Z,26.92
2022-10-11T13:14:32.159Z,23.38
2022-10-11T13:17:48.852Z,28.13
2022-10-11T13:20:37.615Z,28.02
2022-10-11T13:23:35.745Z,20.40
2022-10-11T13:26:21.803Z,22.83
2022-10-11T13:29:32.995Z,23.02
2022-10-11T13:32:23.834Z,23.23
2022-10-11T13:35:38.131Z,19.70
2022-10-11T13:38:27.880Z,15.80
2022-10-11T13:41:13.658Z,17.48
2022-10-11T13:44:00.353Z,27.40
2022-10-11T13:46:46.262Z,22.55
2022-10-11T13:49:37.710Z,22.15
2022-10-11T13:52:24.702Z,23.08
2022-10-11T13:55:24.222Z,22.40
2022-10-11T13:58:23.292Z,23.45
2022-10-11T14:01:22.272Z,24.95
2022-10-11T14:04:10.964Z,19.88
2022-10-11T14:07:00.844Z,18.52
2022-10-11T14:09:48.759Z,20.27
2022-10-11T14:12:39.767Z,19.98
2022-10-11T14:15:28.623Z,18.60
2022-10-11T14:18:37.102Z,26.02
2022-10-11T14:22:00.312Z,25.45
2022-10-11T14:24:48.876Z,29.83
2022-10-11T14:27:34.793Z,22.95
2022-10-11T14:30:26.057Z,20.27
2022-10-11T14:33:12.955Z,28.55
2022-10-11T14:35:58.756Z,20.40
2022-10-11T14:38:44.389Z,19.67
2022-10-11T14:41:30.216Z,19.48
2022-10-11T14:44:19.627Z,21.77
2022-10-11T14:47:06.771Z,21.70
2022-10-11T14:49:52.371Z,20.65
2022-10-11T14:52:37.965Z,21.92
2022-10-11T14:55:24.440Z,16.45
2022-10-11T14:58:13.423Z,20.83
2022-10-11T15:00:58.826Z,20.35
2022-10-11T15:03:44.710Z,23.20
2022-10-11T15:06:33.863Z,18.17
2022-10-11T15:09:23.763Z,18.67
2022-10-11T15:12:09.524Z,15.10
2022-10-11T15:14:55.491Z,23.23
2022-10-11T15:17:40.955Z,24.77
2022-10-11T15:20:36.390Z,16.65
2022-10-11T15:23:22.598Z,23.13
2022-10-11T15:26:13.290Z,21.55
2022-10-11T15:28:59.684Z,24.92
2022-10-11T15:31:46.246Z,31.02
2022-10-11T15:34:31.919Z,24.92
2022-10-11T15:37:17.715Z,17.80
2022-10-11T15:40:24.591Z,17.27
2022-10-11T15:43:10.348Z,17.20
2022-10-11T15:45:57.248Z,21.35
2022-10-11T15:48:43.149Z,33.38
2022-10-11T15:51:28.900Z,20.92
2022-10-11T15:54:14.440Z,21.08
2022-10-11T15:57:00.228Z,21.30
2022-10-11T15:59:45.883Z,22.10
2022-10-11T16:02:31.779Z,15.02
2022-10-11T16:05:23.224Z,22.13
2022-10-11T16:08:09.672Z,20.45
2022-10-11T16:10:55.751Z,19.67
2022-10-11T16:13:41.456Z,18.92
2022-10-11T16:16:27.212Z,16.40
2022-10-11T16:19:13.236Z,18.15
2022-10-11T16:21:58.688Z,18.60
2022-10-11T16:24:44.289Z,16.88
2022-10-11T16:27:30.172Z,16.13
2022-10-11T16:30:17.310Z,20.75
2022-10-11T16:33:03.165Z,19.20
2022-10-11T16:35:48.800Z,22.00
2022-10-11T16:38:34.403Z,22.50
2022-10-11T16:41:20.034Z,17.92
2022-10-11T16:44:06.198Z,21.35
2022-10-11T16:46:51.992Z,17.38
2022-10-11T16:49:38.486Z,23.08
2022-10-11T16:52:24.167Z,17.58
2022-10-11T16:55:10.342Z,22.42
2022-10-11T16:57:55.987Z,17.73
2022-10-11T17:00:44.975Z,22.33
2022-10-11T17:03:30.622Z,22.27
2022-10-11T17:06:16.465Z,23.00
2022-10-11T17:09:03.082Z,19.17
2022-10-11T17:11:49.165Z,24.52
2022-10-11T17:14:35.523Z,20.02
2022-10-11T17:17:21.540Z,22.85
2022-10-11T17:20:07.369Z,28.58
2022-10-11T17:22:53.012Z,21.67
2022-10-11T17:25:47.032Z,27.20
2022-10-11T17:28:35.192Z,29.05
2022-10-11T17:31:21.459Z,30.15
2022-10-11T17:34:06.985Z,24.17
2022-10-11T17:39:52.800Z,30.67
2022-10-11T17:42:38.690Z,26.48
2022-10-11T17:45:24.428Z,24.00
2022-10-11T17:48:10.138Z,25.92
2022-10-11T17:50:55.824Z,24.42
2022-10-11T17:53:41.898Z,28.23
2022-10-11T17:56:32.437Z,24.10
2022-10-11T17:59:21.773Z,27.85
2022-10-11T18:02:09.368Z,26.50
2022-10-11T18:04:54.837Z,21.63
2022-10-11T18:07:40.822Z,22.15
2022-10-11T18:10:27.479Z,26.10
2022-10-11T18:13:15.332Z,24.55
2022-10-11T18:16:01.135Z,32.50
2022-10-11T18:18:47.155Z,27.40
2022-10-11T18:21:34.567Z,32.45
2022-10-11T18:24:20.582Z,23.95
2022-10-11T18:27:06.375Z,29.48
2022-10-11T18:29:51.841Z,28.30
2022-10-11T18:32:37.783Z,30.02
2022-10-11T18:35:23.334Z,29.00
2022-10-11T18:38:09.137Z,28.30
2022-10-11T18:40:54.735Z,27.90
2022-10-11T18:43:40.854Z,24.73
2022-10-11T18:46:27.054Z,23.92
2022-10-11T18:49:13.784Z,27.08
2022-10-11T18:51:59.508Z,27.50
2022-10-11T18:54:45.224Z,33.33
2022-10-11T18:57:31.206Z,32.13
2022-10-11T19:00:39.693Z,38.25
2022-10-11T19:03:22.376Z,26.13
2022-10-11T19:06:17.223Z,25.73
2022-10-11T19:09:07.910Z,26.75
2022-10-11T19:11:56.051Z,27.95
2022-10-11T19:14:42.451Z,26.42
2022-10-11T19:17:27.964Z,26.27
2022-10-11T19:20:13.639Z,28.58
2022-10-11T19:22:59.082Z,24.98
2022-10-11T19:25:44.690Z,31.40
2022-10-11T19:28:30.782Z,38.63
2022-10-11T19:31:17.085Z,35.80
2022-10-11T19:34:03.458Z,36.72
2022-10-11T19:36:55.510Z,38.20
2022-10-11T19:39:41.550Z,37.90
2022-10-11T19:42:26.943Z,37.78
2022-10-11T19:45:13.069Z,30.48
2022-10-11T19:47:58.871Z,31.40
2022-10-11T19:50:45.275Z,38.42
2022-10-11T19:53:31.777Z,32.20
2022-10-11T19:56:18.506Z,38.60
2022-10-11T19:59:06.407Z,28.95
2022-10-11T20:01:53.222Z,30.65
2022-10-11T20:04:51.964Z,27.23
2022-10-11T20:07:38.866Z,41.60
2022-10-11T20:10:25.277Z,28.33
2022-10-11T20:13:12.100Z,27.70
2022-10-11T20:15:59.067Z,32.53
2022-10-11T20:18:45.707Z,36.30
2022-10-11T20:21:31.323Z,30.02
2022-10-11T20:24:17.151Z,29.63
2022-10-11T20:27:04.637Z,32.38
2022-10-11T20:29:50.122Z,40.97
2022-10-11T20:32:36.863Z,36.92
2022-10-11T20:35:22.291Z,33.10
2022-10-11T20:38:08.035Z,42.50
2022-10-11T20:40:53.846Z,33.53
2022-10-11T20:43:42.561Z,30.50
2022-10-11T20:46:31.495Z,37.47
2022-10-11T20:49:20.042Z,34.60
2022-10-11T20:52:05.796Z,34.63
2022-10-11T20:54:51.625Z,36.22
2022-10-11T20:57:37.168Z,30.20
2022-10-11T21:00:23.171Z,36.88
2022-10-11T21:03:09.317Z,37.13
2022-10-11T21:06:01.202Z,36.80
2022-10-11T21:08:47.254Z,34.58
2022-10-11T21:11:33.932Z,37.88
2022-10-11T21:14:19.676Z,32.70
2022-10-11T21:17:05.306Z,36.50
2022-10-11T21:19:50.815Z,37.47
2022-10-11T21:22:37.089Z,39.55
2022-10-11T21:25:23.067Z,40.28
2022-10-11T21:28:08.501Z,33.58
2022-10-11T21:30:54.155Z,38.20
2022-10-11T21:33:41.095Z,40.08
2022-10-11T21:36:26.541Z,39.22
2022-10-11T21:39:12.375Z,33.78
2022-10-11T21:41:58.028Z,37.92
2022-10-11T21:44:43.855Z,34.65
2022-10-11T21:47:30.743Z,42.85
2022-10-11T21:50:16.931Z,40.88
2022-10-11T21:53:02.521Z,41.05
2022-10-11T21:55:48.384Z,34.67
2022-10-11T21:58:34.087Z,38.17
2022-10-11T22:01:20.714Z,39.75
2022-10-11T22:04:09.919Z,38.80
2022-10-11T22:06:55.461Z,33.90
2022-10-11T22:09:40.962Z,37.85
2022-10-11T22:12:26.732Z,32.08
2022-10-11T22:15:12.620Z,38.33
2022-10-11T22:17:58.004Z,46.80
2022-10-11T22:20:44.078Z,39.70
2022-10-11T22:23:29.887Z,34.05
2022-10-11T22:26:18.677Z,39.05
2022-10-11T22:29:04.657Z,41.25
2022-10-11T22:31:50.212Z,35.38
2022-10-11T22:34:35.958Z,41.58
2022-10-11T22:37:21.406Z,38.30
2022-10-11T22:40:07.816Z,39.78
2022-10-11T22:42:53.350Z,43.67
2022-10-11T22:45:39.282Z,41.08
2022-10-11T22:48:24.917Z,41.17
2022-10-11T22:51:10.383Z,43.10
2022-10-11T22:53:55.780Z,44.53
2022-10-11T22:56:41.499Z,36.83
2022-10-11T22:59:27.294Z,40.45
2022-10-11T23:02:12.626Z,41.47
2022-10-11T23:04:58.407Z,42.03
2022-10-11T23:07:46.190Z,37.50
2022-10-11T23:10:31.885Z,42.50
2022-10-11T23:13:17.975Z,36.75
2022-10-11T23:16:11.366Z,38.08
2022-10-11T23:18:56.844Z,44.00
2022-10-11T23:21:42.570Z,43.95
2022-10-11T23:24:28.405Z,40.85
2022-10-11T23:27:14.375Z,38.47
2022-10-11T23:29:59.857Z,36.80
2022-10-11T23:32:45.891Z,35.25
2022-10-11T23:35:31.251Z,33.30
2022-10-11T23:38:17.124Z,39.58
2022-10-11T23:41:02.606Z,36.35
2022-10-11T23:43:48.160Z,45.05
2022-10-11T23:46:33.913Z,35.22
2022-10-11T23:49:19.499Z,36.45
2022-10-11T23:52:05.480Z,43.00
2022-10-11T23:54:50.919Z,32.33
2022-10-11T23:57:36.784Z,37.42
